sensor_id;sensor_type;location;lat;lon;timestamp;P1;durP1;ratioP1;P2;durP2;ratioP2
66421;SDS011;53228;51.380;0.098;2022-12-18T00:01:47;8.98;;;4.13;;
66421;SDS011;53228;51.380;0.098;2022-12-18T00:04:19;8.75;;;4.13;;
66421;SDS011;53228;51.380;0.098;2022-12-18T00:06:50;10.43;;;4.70;;
66421;SDS011;53228;51.380;0.098;2022-12-18T00:09:18;7.22;;;3.72;;
66421;SDS011;53228;51.380;0.098;2022-12-18T00:11:46;9.13;;;4.30;;
66421;SDS011;53228;51.380;0.098;2022-12-18T00:14:14;10.07;;;4.07;;
66421;SDS011;53228;51.380;0.098;2022-12-18T00:16:45;6.78;;;3.13;;
66421;SDS011;53228;51.380;0.098;2022-12-18T00:19:14;7.95;;;3.65;;
66421;SDS011;53228;51.380;0.098;2022-12-18T00:21:42;6.80;;;4.40;;
66421;SDS011;53228;51.380;0.098;2022-12-18T00:24:10;9.90;;;4.85;;
66421;SDS011;53228;51.380;0.098;2022-12-18T00:26:38;11.82;;;4.50;;
66421;SDS011;53228;51.380;0.098;2022-12-18T00:29:08;9.75;;;4.30;;
66421;SDS011;53228;51.380;0.098;2022-12-18T00:31:38;9.07;;;4.60;;
66421;SDS011;53228;51.380;0.098;2022-12-18T00:34:06;4.78;;;3.40;;
66421;SDS011;53228;51.380;0.098;2022-12-18T00:36:39;11.38;;;4.13;;
66421;SDS011;53228;51.380;0.098;2022-12-18T00:39:08;7.55;;;4.45;;
66421;SDS011;53228;51.380;0.098;2022-12-18T00:41:37;8.80;;;3.83;;
66421;SDS011;53228;51.380;0.098;2022-12-18T00:44:24;8.52;;;4.22;;
66421;SDS011;53228;51.380;0.098;2022-12-18T00:46:52;6.75;;;3.80;;
66421;SDS011;53228;51.380;0.098;2022-12-18T00:49:20;9.05;;;3.90;;
66421;SDS011;53228;51.380;0.098;2022-12-18T00:51:49;10.13;;;4.25;;
66421;SDS011;53228;51.380;0.098;2022-12-18T00:54:16;7.60;;;3.97;;
66421;SDS011;53228;51.380;0.098;2022-12-18T00:56:44;10.20;;;5.28;;
66421;SDS011;53228;51.380;0.098;2022-12-18T00:59:17;11.60;;;3.90;;
66421;SDS011;53228;51.380;0.098;2022-12-18T01:01:45;14.00;;;4.80;;
66421;SDS011;53228;51.380;0.098;2022-12-18T01:04:14;11.00;;;3.85;;
66421;SDS011;53228;51.380;0.098;2022-12-18T01:06:44;7.25;;;4.25;;
66421;SDS011;53228;51.380;0.098;2022-12-18T01:09:12;8.52;;;4.75;;
66421;SDS011;53228;51.380;0.098;2022-12-18T01:11:40;8.52;;;4.15;;
66421;SDS011;53228;51.380;0.098;2022-12-18T01:14:09;7.65;;;4.40;;
66421;SDS011;53228;51.380;0.098;2022-12-18T01:16:37;14.63;;;6.47;;
66421;SDS011;53228;51.380;0.098;2022-12-18T01:19:04;6.93;;;4.20;;
66421;SDS011;53228;51.380;0.098;2022-12-18T01:21:32;8.63;;;4.40;;
66421;SDS011;53228;51.380;0.098;2022-12-18T01:24:03;8.05;;;4.03;;
66421;SDS011;53228;51.380;0.098;2022-12-18T01:26:31;8.13;;;4.28;;
66421;SDS011;53228;51.380;0.098;2022-12-18T01:28:59;9.23;;;4.15;;
66421;SDS011;53228;51.380;0.098;2022-12-18T01:31:29;11.02;;;4.10;;
66421;SDS011;53228;51.380;0.098;2022-12-18T01:34:00;10.15;;;4.22;;
66421;SDS011;53228;51.380;0.098;2022-12-18T01:36:32;11.68;;;4.68;;
66421;SDS011;53228;51.380;0.098;2022-12-18T01:39:04;10.52;;;4.45;;
66421;SDS011;53228;51.380;0.098;2022-12-18T01:41:34;8.02;;;4.32;;
66421;SDS011;53228;51.380;0.098;2022-12-18T01:52:43;11.80;;;4.15;;
66421;SDS011;53228;51.380;0.098;2022-12-18T01:55:16;10.38;;;4.90;;
66421;SDS011;53228;51.380;0.098;2022-12-18T01:57:47;8.10;;;4.43;;
66421;SDS011;53228;51.380;0.098;2022-12-18T02:00:17;8.57;;;4.63;;
66421;SDS011;53228;51.380;0.098;2022-12-18T02:02:47;8.90;;;4.53;;
66421;SDS011;53228;51.380;0.098;2022-12-18T02:05:16;9.48;;;5.45;;
66421;SDS011;53228;51.380;0.098;2022-12-18T02:16:18;12.82;;;5.05;;
66421;SDS011;53228;51.380;0.098;2022-12-18T02:19:00;13.60;;;5.35;;
66421;SDS011;53228;51.380;0.098;2022-12-18T02:21:48;13.02;;;5.50;;
66421;SDS011;53228;51.380;0.098;2022-12-18T02:27:17;11.82;;;5.68;;
66421;SDS011;53228;51.380;0.098;2022-12-18T02:29:49;10.45;;;5.10;;
66421;SDS011;53228;51.380;0.098;2022-12-18T02:32:28;7.55;;;3.92;;
66421;SDS011;53228;51.380;0.098;2022-12-18T02:35:03;13.10;;;5.82;;
66421;SDS011;53228;51.380;0.098;2022-12-18T02:37:34;14.50;;;6.40;;
66421;SDS011;53228;51.380;0.098;2022-12-18T02:40:06;12.48;;;5.47;;
66421;SDS011;53228;51.380;0.098;2022-12-18T02:42:37;12.77;;;6.40;;
66421;SDS011;53228;51.380;0.098;2022-12-18T02:45:07;16.05;;;7.05;;
66421;SDS011;53228;51.380;0.098;2022-12-18T02:47:38;10.52;;;6.05;;
66421;SDS011;53228;51.380;0.098;2022-12-18T02:56:18;11.05;;;5.80;;
66421;SDS011;53228;51.380;0.098;2022-12-18T03:01:51;12.38;;;5.68;;
66421;SDS011;53228;51.380;0.098;2022-12-18T03:04:27;9.13;;;5.78;;
66421;SDS011;53228;51.380;0.098;2022-12-18T03:07:02;16.45;;;7.07;;
66421;SDS011;53228;51.380;0.098;2022-12-18T03:09:36;12.50;;;5.80;;
66421;SDS011;53228;51.380;0.098;2022-12-18T03:12:16;20.40;;;7.97;;
66421;SDS011;53228;51.380;0.098;2022-12-18T03:17:32;16.75;;;6.80;;
66421;SDS011;53228;51.380;0.098;2022-12-18T03:20:05;12.98;;;6.28;;
66421;SDS011;53228;51.380;0.098;2022-12-18T03:22:42;13.70;;;6.72;;
66421;SDS011;53228;51.380;0.098;2022-12-18T03:25:13;16.95;;;7.57;;
66421;SDS011;53228;51.380;0.098;2022-12-18T03:30:15;15.00;;;7.15;;
66421;SDS011;53228;51.380;0.098;2022-12-18T03:35:44;15.55;;;7.95;;
66421;SDS011;53228;51.380;0.098;2022-12-18T03:38:13;19.05;;;7.13;;
66421;SDS011;53228;51.380;0.098;2022-12-18T03:40:59;14.00;;;7.18;;
66421;SDS011;53228;51.380;0.098;2022-12-18T03:43:45;15.88;;;6.50;;
66421;SDS011;53228;51.380;0.098;2022-12-18T03:46:28;17.77;;;8.35;;
66421;SDS011;53228;51.380;0.098;2022-12-18T03:49:08;16.50;;;7.20;;
66421;SDS011;53228;51.380;0.098;2022-12-18T03:51:52;14.40;;;7.63;;
66421;SDS011;53228;51.380;0.098;2022-12-18T03:54:25;16.83;;;8.10;;
66421;SDS011;53228;51.380;0.098;2022-12-18T03:59:38;21.73;;;7.72;;
66421;SDS011;53228;51.380;0.098;2022-12-18T04:02:08;23.15;;;8.07;;
66421;SDS011;53228;51.380;0.098;2022-12-18T04:04:37;15.90;;;6.90;;
66421;SDS011;53228;51.380;0.098;2022-12-18T04:07:07;23.65;;;9.25;;
66421;SDS011;53228;51.380;0.098;2022-12-18T04:09:38;19.08;;;7.70;;
66421;SDS011;53228;51.380;0.098;2022-12-18T04:12:08;17.83;;;8.30;;
66421;SDS011;53228;51.380;0.098;2022-12-18T04:14:36;24.95;;;9.90;;
66421;SDS011;53228;51.380;0.098;2022-12-18T04:17:07;18.42;;;8.70;;
66421;SDS011;53228;51.380;0.098;2022-12-18T04:19:34;23.20;;;9.45;;
66421;SDS011;53228;51.380;0.098;2022-12-18T04:22:03;25.10;;;8.95;;
66421;SDS011;53228;51.380;0.098;2022-12-18T04:24:38;18.95;;;8.57;;
66421;SDS011;53228;51.380;0.098;2022-12-18T04:27:13;19.35;;;7.90;;
66421;SDS011;53228;51.380;0.098;2022-12-18T04:29:47;28.33;;;9.40;;
66421;SDS011;53228;51.380;0.098;2022-12-18T04:32:17;17.15;;;8.13;;
66421;SDS011;53228;51.380;0.098;2022-12-18T04:34:46;26.40;;;9.80;;
66421;SDS011;53228;51.380;0.098;2022-12-18T04:37:14;23.75;;;8.65;;
66421;SDS011;53228;51.380;0.098;2022-12-18T04:39:43;21.15;;;9.70;;
66421;SDS011;53228;51.380;0.098;2022-12-18T04:42:19;24.63;;;9.48;;
66421;SDS011;53228;51.380;0.098;2022-12-18T04:44:47;24.92;;;9.50;;
66421;SDS011;53228;51.380;0.098;2022-12-18T04:47:14;20.08;;;9.38;;
66421;SDS011;53228;51.380;0.098;2022-12-18T04:49:42;21.75;;;9.82;;
66421;SDS011;53228;51.380;0.098;2022-12-18T04:52:10;22.42;;;9.75;;
66421;SDS011;53228;51.380;0.098;2022-12-18T04:54:37;25.90;;;8.55;;
66421;SDS011;53228;51.380;0.098;2022-12-18T04:57:05;20.00;;;9.13;;
66421;SDS011;53228;51.380;0.098;2022-12-18T04:59:32;29.85;;;10.43;;
66421;SDS011;53228;51.380;0.098;2022-12-18T05:02:00;21.20;;;7.95;;
66421;SDS011;53228;51.380;0.098;2022-12-18T05:04:28;27.13;;;9.20;;
66421;SDS011;53228;51.380;0.098;2022-12-18T05:06:55;28.90;;;11.18;;
66421;SDS011;53228;51.380;0.098;2022-12-18T05:09:23;27.85;;;10.93;;
66421;SDS011;53228;51.380;0.098;2022-12-18T05:11:50;31.17;;;11.63;;
66421;SDS011;53228;51.380;0.098;2022-12-18T05:14:18;29.42;;;11.95;;
66421;SDS011;53228;51.380;0.098;2022-12-18T05:16:46;34.55;;;10.85;;
66421;SDS011;53228;51.380;0.098;2022-12-18T05:19:13;31.20;;;11.30;;
66421;SDS011;53228;51.380;0.098;2022-12-18T05:21:41;33.30;;;13.27;;
66421;SDS011;53228;51.380;0.098;2022-12-18T05:24:09;33.63;;;12.50;;
66421;SDS011;53228;51.380;0.098;2022-12-18T05:26:36;26.05;;;9.10;;
66421;SDS011;53228;51.380;0.098;2022-12-18T05:29:04;33.35;;;12.20;;
66421;SDS011;53228;51.380;0.098;2022-12-18T05:31:31;34.60;;;12.57;;
66421;SDS011;53228;51.380;0.098;2022-12-18T05:34:05;39.83;;;13.85;;
66421;SDS011;53228;51.380;0.098;2022-12-18T05:36:33;34.55;;;12.65;;
66421;SDS011;53228;51.380;0.098;2022-12-18T05:39:01;32.50;;;12.90;;
66421;SDS011;53228;51.380;0.098;2022-12-18T05:41:33;39.80;;;13.18;;
66421;SDS011;53228;51.380;0.098;2022-12-18T05:44:00;34.42;;;12.10;;
66421;SDS011;53228;51.380;0.098;2022-12-18T05:46:28;35.17;;;12.27;;
66421;SDS011;53228;51.380;0.098;2022-12-18T05:48:58;37.58;;;12.27;;
66421;SDS011;53228;51.380;0.098;2022-12-18T05:51:28;37.35;;;12.25;;
66421;SDS011;53228;51.380;0.098;2022-12-18T05:53:55;34.63;;;11.55;;
66421;SDS011;53228;51.380;0.098;2022-12-18T05:56:23;31.35;;;11.10;;
66421;SDS011;53228;51.380;0.098;2022-12-18T05:58:51;37.83;;;12.27;;
66421;SDS011;53228;51.380;0.098;2022-12-18T06:01:21;26.02;;;9.55;;
66421;SDS011;53228;51.380;0.098;2022-12-18T06:03:51;40.17;;;13.63;;
66421;SDS011;53228;51.380;0.098;2022-12-18T06:06:21;36.85;;;12.80;;
66421;SDS011;53228;51.380;0.098;2022-12-18T06:08:50;39.63;;;12.88;;
66421;SDS011;53228;51.380;0.098;2022-12-18T06:11:19;36.65;;;13.20;;
66421;SDS011;53228;51.380;0.098;2022-12-18T06:13:49;34.22;;;11.43;;
66421;SDS011;53228;51.380;0.098;2022-12-18T06:16:24;35.08;;;12.80;;
66421;SDS011;53228;51.380;0.098;2022-12-18T06:18:53;36.72;;;12.85;;
66421;SDS011;53228;51.380;0.098;2022-12-18T06:21:26;38.42;;;13.50;;
66421;SDS011;53228;51.380;0.098;2022-12-18T06:23:54;46.70;;;15.38;;
66421;SDS011;53228;51.380;0.098;2022-12-18T06:26:22;33.55;;;12.77;;
66421;SDS011;53228;51.380;0.098;2022-12-18T06:28:54;29.27;;;10.50;;
66421;SDS011;53228;51.380;0.098;2022-12-18T06:31:22;41.85;;;13.70;;
66421;SDS011;53228;51.380;0.098;2022-12-18T06:33:49;38.08;;;14.43;;
66421;SDS011;53228;51.380;0.098;2022-12-18T06:36:17;35.65;;;13.38;;
66421;SDS011;53228;51.380;0.098;2022-12-18T06:38:45;43.20;;;15.00;;
66421;SDS011;53228;51.380;0.098;2022-12-18T06:41:16;37.67;;;13.65;;
66421;SDS011;53228;51.380;0.098;2022-12-18T06:43:45;43.63;;;13.35;;
66421;SDS011;53228;51.380;0.098;2022-12-18T06:46:13;39.78;;;15.27;;
66421;SDS011;53228;51.380;0.098;2022-12-18T06:48:41;49.72;;;15.60;;
66421;SDS011;53228;51.380;0.098;2022-12-18T06:51:08;49.67;;;14.70;;
66421;SDS011;53228;51.380;0.098;2022-12-18T06:53:36;40.17;;;13.20;;
66421;SDS011;53228;51.380;0.098;2022-12-18T06:56:05;44.22;;;15.60;;
66421;SDS011;53228;51.380;0.098;2022-12-18T06:58:37;48.58;;;14.48;;
66421;SDS011;53228;51.380;0.098;2022-12-18T07:01:07;44.08;;;13.70;;
66421;SDS011;53228;51.380;0.098;2022-12-18T07:03:37;42.78;;;14.00;;
66421;SDS011;53228;51.380;0.098;2022-12-18T07:06:13;41.85;;;14.07;;
66421;SDS011;53228;51.380;0.098;2022-12-18T07:08:45;44.25;;;15.10;;
66421;SDS011;53228;51.380;0.098;2022-12-18T07:11:13;47.50;;;15.18;;
66421;SDS011;53228;51.380;0.098;2022-12-18T07:13:41;51.13;;;17.20;;
66421;SDS011;53228;51.380;0.098;2022-12-18T07:16:13;49.95;;;19.25;;
66421;SDS011;53228;51.380;0.098;2022-12-18T07:18:51;48.67;;;19.65;;
66421;SDS011;53228;51.380;0.098;2022-12-18T07:21:21;52.47;;;19.65;;
66421;SDS011;53228;51.380;0.098;2022-12-18T07:23:49;60.42;;;21.02;;
66421;SDS011;53228;51.380;0.098;2022-12-18T07:26:18;50.15;;;19.33;;
66421;SDS011;53228;51.380;0.098;2022-12-18T07:28:47;48.45;;;17.90;;
66421;SDS011;53228;51.380;0.098;2022-12-18T07:31:17;52.78;;;19.05;;
66421;SDS011;53228;51.380;0.098;2022-12-18T07:33:47;57.03;;;22.38;;
66421;SDS011;53228;51.380;0.098;2022-12-18T07:36:15;45.78;;;16.05;;
66421;SDS011;53228;51.380;0.098;2022-12-18T07:38:46;66.40;;;21.20;;
66421;SDS011;53228;51.380;0.098;2022-12-18T07:41:14;55.03;;;18.23;;
66421;SDS011;53228;51.380;0.098;2022-12-18T07:43:42;48.72;;;17.45;;
66421;SDS011;53228;51.380;0.098;2022-12-18T07:46:11;55.58;;;21.88;;
66421;SDS011;53228;51.380;0.098;2022-12-18T07:48:43;44.03;;;15.50;;
66421;SDS011;53228;51.380;0.098;2022-12-18T07:51:16;49.17;;;18.17;;
66421;SDS011;53228;51.380;0.098;2022-12-18T07:53:44;42.50;;;16.35;;
66421;SDS011;53228;51.380;0.098;2022-12-18T07:56:15;45.10;;;15.07;;
66421;SDS011;53228;51.380;0.098;2022-12-18T07:58:54;46.83;;;16.05;;
66421;SDS011;53228;51.380;0.098;2022-12-18T08:01:22;57.78;;;17.63;;
66421;SDS011;53228;51.380;0.098;2022-12-18T08:03:50;56.15;;;19.30;;
66421;SDS011;53228;51.380;0.098;2022-12-18T08:06:18;41.10;;;15.52;;
66421;SDS011;53228;51.380;0.098;2022-12-18T08:11:17;45.40;;;16.10;;
66421;SDS011;53228;51.380;0.098;2022-12-18T08:13:45;42.67;;;15.35;;
66421;SDS011;53228;51.380;0.098;2022-12-18T08:16:13;40.28;;;14.55;;
66421;SDS011;53228;51.380;0.098;2022-12-18T08:18:41;45.00;;;14.95;;
66421;SDS011;53228;51.380;0.098;2022-12-18T08:21:09;34.55;;;12.55;;
66421;SDS011;53228;51.380;0.098;2022-12-18T08:23:42;48.80;;;15.88;;
66421;SDS011;53228;51.380;0.098;2022-12-18T08:26:11;44.65;;;14.70;;
66421;SDS011;53228;51.380;0.098;2022-12-18T08:28:39;46.75;;;15.18;;
66421;SDS011;53228;51.380;0.098;2022-12-18T08:31:07;42.22;;;15.75;;
66421;SDS011;53228;51.380;0.098;2022-12-18T08:33:36;46.30;;;15.50;;
66421;SDS011;53228;51.380;0.098;2022-12-18T08:36:08;47.65;;;16.48;;
66421;SDS011;53228;51.380;0.098;2022-12-18T08:38:36;44.05;;;14.50;;
66421;SDS011;53228;51.380;0.098;2022-12-18T08:41:05;46.22;;;14.38;;
66421;SDS011;53228;51.380;0.098;2022-12-18T08:43:34;45.95;;;14.93;;
66421;SDS011;53228;51.380;0.098;2022-12-18T08:46:21;39.75;;;14.45;;
66421;SDS011;53228;51.380;0.098;2022-12-18T08:48:51;50.17;;;14.77;;
66421;SDS011;53228;51.380;0.098;2022-12-18T08:51:20;35.75;;;12.10;;
66421;SDS011;53228;51.380;0.098;2022-12-18T08:53:48;54.03;;;16.17;;
66421;SDS011;53228;51.380;0.098;2022-12-18T08:56:16;44.28;;;15.32;;
66421;SDS011;53228;51.380;0.098;2022-12-18T08:58:43;48.17;;;16.85;;
66421;SDS011;53228;51.380;0.098;2022-12-18T09:01:12;40.80;;;16.33;;
66421;SDS011;53228;51.380;0.098;2022-12-18T09:03:40;42.85;;;15.27;;
66421;SDS011;53228;51.380;0.098;2022-12-18T09:06:09;48.05;;;16.02;;
66421;SDS011;53228;51.380;0.098;2022-12-18T09:08:40;39.38;;;14.57;;
66421;SDS011;53228;51.380;0.098;2022-12-18T09:11:12;45.65;;;15.65;;
66421;SDS011;53228;51.380;0.098;2022-12-18T09:13:52;46.40;;;15.68;;
66421;SDS011;53228;51.380;0.098;2022-12-18T09:16:21;46.33;;;15.27;;
66421;SDS011;53228;51.380;0.098;2022-12-18T09:18:58;47.35;;;15.57;;
66421;SDS011;53228;51.380;0.098;2022-12-18T09:21:28;39.30;;;14.93;;
66421;SDS011;53228;51.380;0.098;2022-12-18T09:23:58;42.67;;;14.40;;
66421;SDS011;53228;51.380;0.098;2022-12-18T09:26:26;48.60;;;14.85;;
66421;SDS011;53228;51.380;0.098;2022-12-18T09:28:54;34.55;;;12.38;;
66421;SDS011;53228;51.380;0.098;2022-12-18T09:31:23;47.97;;;15.65;;
66421;SDS011;53228;51.380;0.098;2022-12-18T09:33:52;47.47;;;16.58;;
66421;SDS011;53228;51.380;0.098;2022-12-18T09:36:25;23.83;;;8.75;;
66421;SDS011;53228;51.380;0.098;2022-12-18T09:38:53;33.22;;;11.52;;
66421;SDS011;53228;51.380;0.098;2022-12-18T09:47:12;37.80;;;12.02;;
66421;SDS011;53228;51.380;0.098;2022-12-18T09:49:46;34.28;;;11.27;;
66421;SDS011;53228;51.380;0.098;2022-12-18T09:52:19;40.92;;;13.48;;
66421;SDS011;53228;51.380;0.098;2022-12-18T09:55:22;39.65;;;12.32;;
66421;SDS011;53228;51.380;0.098;2022-12-18T09:57:42;25.17;;;9.77;;
66421;SDS011;53228;51.380;0.098;2022-12-18T10:00:19;31.90;;;9.65;;
66421;SDS011;53228;51.380;0.098;2022-12-18T10:02:48;41.42;;;12.85;;
66421;SDS011;53228;51.380;0.098;2022-12-18T10:05:20;30.30;;;11.48;;
66421;SDS011;53228;51.380;0.098;2022-12-18T10:08:05;42.38;;;11.82;;
66421;SDS011;53228;51.380;0.098;2022-12-18T10:10:46;45.33;;;16.65;;
66421;SDS011;53228;51.380;0.098;2022-12-18T10:13:41;30.40;;;10.05;;
66421;SDS011;53228;51.380;0.098;2022-12-18T10:16:17;38.90;;;13.50;;
66421;SDS011;53228;51.380;0.098;2022-12-18T10:21:46;33.90;;;11.95;;
66421;SDS011;53228;51.380;0.098;2022-12-18T10:27:12;32.65;;;11.95;;
66421;SDS011;53228;51.380;0.098;2022-12-18T10:29:45;33.00;;;11.32;;
66421;SDS011;53228;51.380;0.098;2022-12-18T10:32:21;30.42;;;11.65;;
66421;SDS011;53228;51.380;0.098;2022-12-18T10:34:53;32.20;;;11.18;;
66421;SDS011;53228;51.380;0.098;2022-12-18T10:37:27;25.92;;;10.40;;
66421;SDS011;53228;51.380;0.098;2022-12-18T10:40:07;34.08;;;11.68;;
66421;SDS011;53228;51.380;0.098;2022-12-18T10:42:36;40.17;;;11.98;;
66421;SDS011;53228;51.380;0.098;2022-12-18T10:47:35;30.42;;;12.65;;
66421;SDS011;53228;51.380;0.098;2022-12-18T10:50:03;30.20;;;11.70;;
66421;SDS011;53228;51.380;0.098;2022-12-18T10:52:31;22.60;;;8.93;;
66421;SDS011;53228;51.380;0.098;2022-12-18T10:55:02;31.13;;;11.27;;
66421;SDS011;53228;51.380;0.098;2022-12-18T11:08:35;31.80;;;10.75;;
66421;SDS011;53228;51.380;0.098;2022-12-18T11:11:19;24.17;;;9.40;;
66421;SDS011;53228;51.380;0.098;2022-12-18T11:13:57;24.73;;;9.52;;
66421;SDS011;53228;51.380;0.098;2022-12-18T11:16:43;27.75;;;9.52;;
66421;SDS011;53228;51.380;0.098;2022-12-18T11:23:18;21.90;;;8.05;;
66421;SDS011;53228;51.380;0.098;2022-12-18T11:25:29;23.25;;;10.48;;
66421;SDS011;53228;51.380;0.098;2022-12-18T11:30:32;34.08;;;10.20;;
66421;SDS011;53228;51.380;0.098;2022-12-18T11:33:04;22.17;;;8.95;;
66421;SDS011;53228;51.380;0.098;2022-12-18T11:38:52;24.73;;;8.13;;
66421;SDS011;53228;51.380;0.098;2022-12-18T12:19:01;30.10;;;9.98;;
66421;SDS011;53228;51.380;0.098;2022-12-18T12:40:41;22.50;;;8.90;;
66421;SDS011;53228;51.380;0.098;2022-12-18T12:43:42;30.85;;;9.05;;
66421;SDS011;53228;51.380;0.098;2022-12-18T12:46:17;23.75;;;8.38;;
66421;SDS011;53228;51.380;0.098;2022-12-18T12:48:50;23.10;;;10.20;;
66421;SDS011;53228;51.380;0.098;2022-12-18T12:51:29;25.70;;;10.23;;
66421;SDS011;53228;51.380;0.098;2022-12-18T12:54:13;26.67;;;10.23;;
66421;SDS011;53228;51.380;0.098;2022-12-18T13:02:06;25.35;;;9.77;;
66421;SDS011;53228;51.380;0.098;2022-12-18T13:04:47;18.17;;;8.23;;
66421;SDS011;53228;51.380;0.098;2022-12-18T13:07:38;24.67;;;9.65;;
66421;SDS011;53228;51.380;0.098;2022-12-18T13:16:05;34.03;;;11.10;;
66421;SDS011;53228;51.380;0.098;2022-12-18T13:18:34;27.38;;;10.38;;
66421;SDS011;53228;51.380;0.098;2022-12-18T13:21:23;25.88;;;10.93;;
66421;SDS011;53228;51.380;0.098;2022-12-18T13:23:54;32.38;;;11.85;;
66421;SDS011;53228;51.380;0.098;2022-12-18T13:28:56;37.88;;;13.07;;
66421;SDS011;53228;51.380;0.098;2022-12-18T13:36:55;42.20;;;14.90;;
66421;SDS011;53228;51.380;0.098;2022-12-18T13:39:55;30.23;;;11.85;;
66421;SDS011;53228;51.380;0.098;2022-12-18T13:45:34;35.17;;;12.70;;
66421;SDS011;53228;51.380;0.098;2022-12-18T13:48:05;35.15;;;13.05;;
66421;SDS011;53228;51.380;0.098;2022-12-18T13:50:48;23.92;;;9.88;;
66421;SDS011;53228;51.380;0.098;2022-12-18T13:53:26;27.65;;;11.45;;
66421;SDS011;53228;51.380;0.098;2022-12-18T13:55:59;35.83;;;12.20;;
66421;SDS011;53228;51.380;0.098;2022-12-18T13:58:27;40.15;;;14.05;;
66421;SDS011;53228;51.380;0.098;2022-12-18T14:00:55;34.08;;;10.50;;
66421;SDS011;53228;51.380;0.098;2022-12-18T14:03:24;43.97;;;12.68;;
66421;SDS011;53228;51.380;0.098;2022-12-18T14:06:02;25.42;;;11.50;;
66421;SDS011;53228;51.380;0.098;2022-12-18T14:08:37;29.92;;;11.25;;
66421;SDS011;53228;51.380;0.098;2022-12-18T14:11:18;33.63;;;12.30;;
66421;SDS011;53228;51.380;0.098;2022-12-18T14:13:49;27.52;;;9.40;;
66421;SDS011;53228;51.380;0.098;2022-12-18T14:16:17;26.40;;;10.55;;
66421;SDS011;53228;51.380;0.098;2022-12-18T14:18:46;39.50;;;13.10;;
66421;SDS011;53228;51.380;0.098;2022-12-18T14:21:23;33.20;;;12.45;;
66421;SDS011;53228;51.380;0.098;2022-12-18T14:26:50;39.22;;;13.68;;
66421;SDS011;53228;51.380;0.098;2022-12-18T14:34:51;33.33;;;12.60;;
66421;SDS011;53228;51.380;0.098;2022-12-18T14:37:24;28.95;;;11.45;;
66421;SDS011;53228;51.380;0.098;2022-12-18T14:39:57;35.05;;;12.73;;
66421;SDS011;53228;51.380;0.098;2022-12-18T14:42:36;33.67;;;12.90;;
66421;SDS011;53228;51.380;0.098;2022-12-18T14:50:40;27.52;;;10.48;;
66421;SDS011;53228;51.380;0.098;2022-12-18T14:53:18;33.42;;;11.07;;
66421;SDS011;53228;51.380;0.098;2022-12-18T14:55:50;29.25;;;11.82;;
66421;SDS011;53228;51.380;0.098;2022-12-18T14:58:18;28.42;;;10.55;;
66421;SDS011;53228;51.380;0.098;2022-12-18T15:00:46;34.38;;;11.13;;
66421;SDS011;53228;51.380;0.098;2022-12-18T15:03:17;33.38;;;12.43;;
66421;SDS011;53228;51.380;0.098;2022-12-18T15:05:47;24.13;;;10.07;;
66421;SDS011;53228;51.380;0.098;2022-12-18T15:08:27;30.52;;;11.60;;
66421;SDS011;53228;51.380;0.098;2022-12-18T15:10:56;30.50;;;11.20;;
66421;SDS011;53228;51.380;0.098;2022-12-18T15:13:24;24.95;;;10.00;;
66421;SDS011;53228;51.380;0.098;2022-12-18T15:15:52;26.88;;;10.80;;
66421;SDS011;53228;51.380;0.098;2022-12-18T15:18:24;31.63;;;12.65;;
66421;SDS011;53228;51.380;0.098;2022-12-18T15:21:00;30.48;;;12.07;;
66421;SDS011;53228;51.380;0.098;2022-12-18T15:23:51;25.25;;;10.13;;
66421;SDS011;53228;51.380;0.098;2022-12-18T15:26:20;32.08;;;13.95;;
66421;SDS011;53228;51.380;0.098;2022-12-18T15:31:29;37.03;;;15.43;;
66421;SDS011;53228;51.380;0.098;2022-12-18T15:34:14;29.85;;;12.95;;
66421;SDS011;53228;51.380;0.098;2022-12-18T15:36:47;26.15;;;10.05;;
66421;SDS011;53228;51.380;0.098;2022-12-18T15:39:17;32.95;;;12.90;;
66421;SDS011;53228;51.380;0.098;2022-12-18T15:41:44;30.20;;;12.75;;
66421;SDS011;53228;51.380;0.098;2022-12-18T15:44:32;20.67;;;9.13;;
66421;SDS011;53228;51.380;0.098;2022-12-18T15:47:00;23.63;;;10.32;;
66421;SDS011;53228;51.380;0.098;2022-12-18T15:49:28;25.95;;;12.02;;
66421;SDS011;53228;51.380;0.098;2022-12-18T15:51:56;28.58;;;11.95;;
66421;SDS011;53228;51.380;0.098;2022-12-18T15:54:26;33.70;;;13.23;;
66421;SDS011;53228;51.380;0.098;2022-12-18T15:57:12;26.33;;;11.38;;
66421;SDS011;53228;51.380;0.098;2022-12-18T15:59:53;26.13;;;10.77;;
66421;SDS011;53228;51.380;0.098;2022-12-18T16:02:25;26.58;;;10.73;;
66421;SDS011;53228;51.380;0.098;2022-12-18T16:04:53;26.58;;;11.30;;
66421;SDS011;53228;51.380;0.098;2022-12-18T16:07:21;24.25;;;10.98;;
66421;SDS011;53228;51.380;0.098;2022-12-18T16:09:52;22.65;;;10.20;;
66421;SDS011;53228;51.380;0.098;2022-12-18T16:12:20;22.73;;;11.38;;
66421;SDS011;53228;51.380;0.098;2022-12-18T16:14:49;21.77;;;9.25;;
66421;SDS011;53228;51.380;0.098;2022-12-18T16:17:17;23.98;;;10.88;;
66421;SDS011;53228;51.380;0.098;2022-12-18T16:19:45;17.58;;;7.35;;
66421;SDS011;53228;51.380;0.098;2022-12-18T16:22:23;23.27;;;10.48;;
66421;SDS011;53228;51.380;0.098;2022-12-18T16:24:55;16.75;;;7.75;;
66421;SDS011;53228;51.380;0.098;2022-12-18T16:27:25;18.13;;;7.75;;
66421;SDS011;53228;51.380;0.098;2022-12-18T16:29:53;26.30;;;9.88;;
66421;SDS011;53228;51.380;0.098;2022-12-18T16:32:21;15.80;;;6.85;;
66421;SDS011;53228;51.380;0.098;2022-12-18T16:34:50;16.33;;;7.43;;
66421;SDS011;53228;51.380;0.098;2022-12-18T16:37:18;16.73;;;7.32;;
66421;SDS011;53228;51.380;0.098;2022-12-18T16:39:46;18.42;;;8.55;;
66421;SDS011;53228;51.380;0.098;2022-12-18T16:42:14;14.48;;;7.15;;
66421;SDS011;53228;51.380;0.098;2022-12-18T16:44:46;17.85;;;8.07;;
66421;SDS011;53228;51.380;0.098;2022-12-18T16:47:15;18.02;;;8.45;;
66421;SDS011;53228;51.380;0.098;2022-12-18T16:49:43;14.75;;;7.35;;
66421;SDS011;53228;51.380;0.098;2022-12-18T16:52:17;17.98;;;8.73;;
66421;SDS011;53228;51.380;0.098;2022-12-18T16:54:45;10.68;;;6.05;;
66421;SDS011;53228;51.380;0.098;2022-12-18T16:57:14;16.75;;;7.38;;
66421;SDS011;53228;51.380;0.098;2022-12-18T16:59:43;17.52;;;7.78;;
66421;SDS011;53228;51.380;0.098;2022-12-18T17:02:19;16.90;;;8.10;;
66421;SDS011;53228;51.380;0.098;2022-12-18T17:04:52;15.90;;;7.35;;
66421;SDS011;53228;51.380;0.098;2022-12-18T17:07:21;11.88;;;6.03;;
66421;SDS011;53228;51.380;0.098;2022-12-18T17:09:49;16.40;;;7.63;;
66421;SDS011;53228;51.380;0.098;2022-12-18T17:12:17;19.83;;;8.68;;
66421;SDS011;53228;51.380;0.098;2022-12-18T17:14:44;14.70;;;7.28;;
66421;SDS011;53228;51.380;0.098;2022-12-18T17:17:12;12.73;;;7.10;;
66421;SDS011;53228;51.380;0.098;2022-12-18T17:19:50;16.98;;;8.00;;
66421;SDS011;53228;51.380;0.098;2022-12-18T17:22:18;16.40;;;7.93;;
66421;SDS011;53228;51.380;0.098;2022-12-18T17:24:48;18.10;;;6.95;;
66421;SDS011;53228;51.380;0.098;2022-12-18T17:27:16;15.48;;;7.60;;
66421;SDS011;53228;51.380;0.098;2022-12-18T17:29:44;13.45;;;7.47;;
66421;SDS011;53228;51.380;0.098;2022-12-18T17:32:15;14.68;;;7.50;;
66421;SDS011;53228;51.380;0.098;2022-12-18T17:34:43;13.00;;;7.40;;
66421;SDS011;53228;51.380;0.098;2022-12-18T17:37:11;15.43;;;7.55;;
66421;SDS011;53228;51.380;0.098;2022-12-18T17:39:39;15.98;;;8.82;;
66421;SDS011;53228;51.380;0.098;2022-12-18T17:42:07;19.80;;;8.82;;
66421;SDS011;53228;51.380;0.098;2022-12-18T17:44:42;20.42;;;11.40;;
66421;SDS011;53228;51.380;0.098;2022-12-18T17:47:11;16.65;;;8.68;;